Time;durP1;ratioP1;P1;durP2;ratioP2;P2;SDS_P1;SDS_P2;PMS_P1;PMS_P2;Temp;Humidity;BMP_temperature;BMP_pressure;BME280_temperature;BME280_humidity;BME280_pressure;Samples;Min_cycle;Max_cycle;Signal;HPM_P1;HPM_P2
2022/04/09 00:04:27;;;;;;;7.57;6.17;;;4.30;99.90;;;;;;10225127;28;20231;-71
2022/04/09 00:09:27;;;;;;;7.83;6.70;;;4.40;99.90;;;;;;10223335;28;20239;-70
2022/04/09 00:14:28;;;;;;;8.97;7.00;;;4.50;99.90;;;;;;10219345;28;20278;-71
2022/04/09 00:19:29;;;;;;;9.13;6.67;;;4.50;99.90;;;;;;10230257;28;20230;-71
2022/04/09 00:24:30;;;;;;;9.23;7.13;;;4.60;99.90;;;;;;10220135;28;20281;-71
2022/04/09 00:29:30;;;;;;;7.93;6.30;;;4.60;99.90;;;;;;10228769;28;20233;-72
2022/04/09 00:34:31;;;;;;;8.47;6.13;;;4.60;99.90;;;;;;10228158;28;20306;-71
2022/04/09 00:39:32;;;;;;;9.37;7.33;;;4.60;99.90;;;;;;10218390;28;20314;-72
2022/04/09 00:44:32;;;;;;;9.03;6.70;;;4.50;99.90;;;;;;10210698;28;20249;-72
2022/04/09 00:49:36;;;;;;;8.37;6.30;;;4.50;99.90;;;;;;10225619;28;20225;-71
2022/04/09 00:54:39;;;;;;;6.43;5.63;;;4.50;99.90;;;;;;10218390;29;20224;-71
2022/04/09 00:59:44;;;;;;;8.90;6.57;;;4.50;99.90;;;;;;10217600;28;20232;-71
2022/04/09 01:04:46;;;;;;;9.93;6.37;;;4.50;99.90;;;;;;10218711;28;20230;-70
2022/04/09 01:09:46;;;;;;;8.57;6.90;;;4.40;99.90;;;;;;10225578;28;20241;-71
2022/04/09 01:14:50;;;;;;;10.20;7.07;;;4.30;99.90;;;;;;10210675;29;20312;-70
2022/04/09 01:19:51;;;;;;;8.00;7.17;;;4.30;99.90;;;;;;10247264;28;20254;-72
2022/04/09 01:24:52;;;;;;;10.10;8.23;;;4.20;99.90;;;;;;10223944;28;20215;-72
2022/04/09 01:29:52;;;;;;;10.37;8.03;;;4.10;99.90;;;;;;10226125;28;20620;-71
2022/04/09 01:34:54;;;;;;;10.80;8.73;;;3.90;99.90;;;;;;10223121;28;20302;-71
2022/04/09 01:39:55;;;;;;;10.53;8.87;;;3.80;99.90;;;;;;10201155;28;20224;-72
2022/04/09 01:44:56;;;;;;;11.77;8.97;;;3.50;99.90;;;;;;10223141;28;20225;-72
2022/04/09 01:50:00;;;;;;;12.10;9.43;;;3.40;99.90;;;;;;10225012;28;20235;-71
2022/04/09 01:55:04;;;;;;;12.03;8.83;;;3.30;99.90;;;;;;10216282;28;20220;-71
2022/04/09 02:00:13;;;;;;;11.30;9.20;;;3.20;99.90;;;;;;10221794;28;20238;-71
2022/04/09 02:05:14;;;;;;;11.93;8.67;;;3.10;99.90;;;;;;10220567;28;20206;-71
2022/04/09 02:10:16;;;;;;;11.33;8.93;;;3.10;99.90;;;;;;10216085;28;20698;-71
2022/04/09 02:15:17;;;;;;;12.40;9.10;;;3.10;99.90;;;;;;10220281;28;20212;-71
2022/04/09 02:20:18;;;;;;;12.43;9.90;;;3.00;99.90;;;;;;10221083;28;20195;-71
2022/04/09 02:25:18;;;;;;;13.33;10.40;;;3.00;99.90;;;;;;10254411;28;20194;-71
2022/04/09 02:30:19;;;;;;;13.87;10.13;;;3.10;99.90;;;;;;10234913;28;20226;-72
2022/04/09 02:35:26;;;;;;;11.87;9.67;;;3.30;99.90;;;;;;10225642;28;20188;-71
2022/04/09 02:40:28;;;;;;;13.77;10.23;;;3.40;99.90;;;;;;10232662;28;20744;-73
2022/04/09 02:45:29;;;;;;;13.00;10.90;;;3.60;99.90;;;;;;10234535;28;20212;-71
2022/04/09 02:50:30;;;;;;;12.93;10.60;;;3.70;99.90;;;;;;10220524;28;20228;-72
2022/04/09 02:55:30;;;;;;;17.53;11.27;;;3.90;99.90;;;;;;10225103;28;20226;-72
2022/04/09 03:00:31;;;;;;;15.03;11.37;;;4.00;99.90;;;;;;10227617;28;20417;-70
2022/04/09 03:05:32;;;;;;;14.23;11.13;;;4.10;99.90;;;;;;10229815;28;20303;-71
2022/04/09 03:10:33;;;;;;;12.50;11.07;;;4.10;99.90;;;;;;10223446;28;20244;-71
2022/04/09 03:15:33;;;;;;;13.33;10.70;;;4.10;99.90;;;;;;10236753;28;20742;-71
2022/04/09 03:20:34;;;;;;;10.90;9.57;;;4.10;99.90;;;;;;10227118;28;20593;-72
2022/04/09 03:25:35;;;;;;;13.67;11.03;;;4.10;99.90;;;;;;10222045;28;20239;-71
2022/04/09 03:30:35;;;;;;;15.17;11.73;;;4.00;99.90;;;;;;10226197;28;20701;-70
2022/04/09 03:35:37;;;;;;;14.10;10.97;;;3.80;99.90;;;;;;10221804;28;20377;-69
2022/04/09 03:40:39;;;;;;;16.90;12.07;;;3.70;99.90;;;;;;10227177;28;20659;-71
2022/04/09 03:45:39;;;;;;;15.87;11.13;;;3.80;99.90;;;;;;10227824;28;20246;-70
2022/04/09 03:50:40;;;;;;;16.27;11.23;;;3.80;99.90;;;;;;10227535;28;20755;-70
2022/04/09 03:55:41;;;;;;;13.63;10.83;;;3.90;99.90;;;;;;10219785;28;20231;-71
2022/04/09 04:00:42;;;;;;;13.17;10.40;;;4.10;99.90;;;;;;10232650;28;20219;-70
2022/04/09 04:05:46;;;;;;;15.63;10.97;;;4.10;99.90;;;;;;10219720;28;20319;-70
2022/04/09 04:10:46;;;;;;;17.50;11.53;;;4.00;99.90;;;;;;10231874;28;20238;-70
2022/04/09 04:15:47;;;;;;;18.83;12.13;;;3.90;99.90;;;;;;10217018;28;20590;-71
2022/04/09 04:20:47;;;;;;;15.23;11.30;;;3.90;99.90;;;;;;10224868;28;20223;-71
2022/04/09 04:25:48;;;;;;;14.10;11.03;;;3.70;99.90;;;;;;10218649;28;20386;-71
2022/04/09 04:30:49;;;;;;;15.43;11.33;;;3.50;99.90;;;;;;10224732;28;20271;-71
2022/04/09 04:35:50;;;;;;;15.80;11.53;;;3.50;99.90;;;;;;10217995;28;20211;-70
2022/04/09 04:40:51;;;;;;;16.07;12.30;;;3.60;99.90;;;;;;10213169;28;20216;-70
2022/04/09 04:45:53;;;;;;;15.77;10.77;;;3.70;99.90;;;;;;10224970;28;20219;-70
2022/04/09 04:50:53;;;;;;;13.70;9.93;;;3.90;99.90;;;;;;10223805;28;20227;-70
2022/04/09 04:55:54;;;;;;;13.17;9.83;;;4.00;99.90;;;;;;10210942;28;20224;-69
2022/04/09 05:00:55;;;;;;;14.07;9.10;;;4.00;99.90;;;;;;10225360;28;20212;-69
2022/04/09 05:05:55;;;;;;;20.33;10.90;;;4.00;99.90;;;;;;10223382;28;20219;-70
2022/04/09 05:10:56;;;;;;;13.90;8.63;;;4.10;99.90;;;;;;10241182;28;20232;-69
2022/04/09 05:15:58;;;;;;;10.93;7.73;;;4.10;99.90;;;;;;10222311;28;20288;-69
2022/04/09 05:20:59;;;;;;;14.20;8.33;;;4.10;99.90;;;;;;10217300;28;20228;-70
2022/04/09 05:25:59;;;;;;;11.33;7.90;;;4.10;99.90;;;;;;10223071;28;20223;-71
2022/04/09 05:31:00;;;;;;;9.80;6.93;;;4.20;99.90;;;;;;10217196;28;20643;-70
2022/04/09 05:36:02;;;;;;;8.90;6.50;;;4.20;99.90;;;;;;10221291;28;20225;-71
2022/04/09 05:41:03;;;;;;;8.57;5.90;;;4.30;99.90;;;;;;10215091;28;20686;-71
2022/04/09 05:46:03;;;;;;;12.93;6.20;;;4.40;99.90;;;;;;10218192;28;20225;-71
2022/04/09 05:51:04;;;;;;;8.80;5.20;;;4.60;99.90;;;;;;10222265;28;20280;-71
2022/04/09 05:56:05;;;;;;;9.30;5.47;;;4.70;99.90;;;;;;10225526;28;20754;-72
2022/04/09 06:01:05;;;;;;;10.77;5.60;;;4.80;99.90;;;;;;10221356;28;20227;-72
2022/04/09 06:06:06;;;;;;;6.60;4.43;;;5.50;99.90;;;;;;10226069;28;20227;-71
2022/04/09 06:11:08;;;;;;;5.00;3.30;;;7.60;99.90;;;;;;10226928;28;20242;-70
2022/04/09 06:16:09;;;;;;;7.20;3.10;;;10.70;99.90;;;;;;10219274;28;20231;-72
2022/04/09 06:21:10;;;;;;;5.97;2.60;;;10.60;99.90;;;;;;10221747;28;20280;-71
2022/04/09 06:26:10;;;;;;;6.43;3.20;;;9.20;99.90;;;;;;10224658;28;20581;-68
2022/04/09 06:31:11;;;;;;;5.70;3.63;;;8.10;99.90;;;;;;10220642;28;20589;-70
2022/04/09 06:36:11;;;;;;;7.60;3.73;;;7.60;99.90;;;;;;10226135;28;20228;-70
2022/04/09 06:41:12;;;;;;;6.93;3.50;;;7.50;99.90;;;;;;10234968;28;20347;-69
2022/04/09 06:46:13;;;;;;;7.13;4.37;;;7.20;99.90;;;;;;10228504;28;20219;-69
2022/04/09 06:51:14;;;;;;;7.17;4.20;;;6.80;99.90;;;;;;10217660;28;20700;-69
2022/04/09 06:56:14;;;;;;;7.87;5.03;;;6.50;99.90;;;;;;10225205;28;20641;-69
2022/04/09 07:01:15;;;;;;;9.17;5.30;;;6.40;99.90;;;;;;10225720;28;20220;-69
2022/04/09 07:06:17;;;;;;;8.00;5.07;;;6.40;99.90;;;;;;10212683;28;20235;-67
2022/04/09 07:11:17;;;;;;;8.50;5.10;;;6.80;99.90;;;;;;10219765;28;20239;-67
2022/04/09 07:16:18;;;;;;;7.63;5.07;;;7.60;99.90;;;;;;10219700;28;20225;-70
2022/04/09 07:21:20;;;;;;;8.80;5.37;;;8.30;99.90;;;;;;10222462;28;20233;-69
2022/04/09 07:26:20;;;;;;;11.07;5.50;;;8.20;99.90;;;;;;10223967;28;20277;-68
2022/04/09 07:31:21;;;;;;;10.80;5.27;;;7.70;99.90;;;;;;10222194;28;20243;-69
2022/04/09 07:36:22;;;;;;;9.80;5.43;;;7.40;99.90;;;;;;10220194;28;20226;-69
2022/04/09 07:41:22;;;;;;;9.77;5.50;;;7.90;99.90;;;;;;10223553;28;20730;-69
2022/04/09 07:46:23;;;;;;;9.30;4.97;;;8.50;99.90;;;;;;10225779;28;20260;-70
2022/04/09 07:51:24;;;;;;;9.23;5.13;;;8.50;99.90;;;;;;10219694;28;20238;-69
2022/04/09 07:56:24;;;;;;;10.77;4.90;;;9.00;99.90;;;;;;10221402;28;20588;-70
2022/04/09 08:01:25;;;;;;;11.30;4.50;;;10.30;99.90;;;;;;10229613;28;20226;-70
2022/04/09 08:06:25;;;;;;;8.27;3.23;;;12.30;99.90;;;;;;10220601;28;20232;-70
2022/04/09 08:11:27;;;;;;;8.87;2.70;;;14.40;99.90;;;;;;10229089;28;20698;-70
2022/04/09 08:16:27;;;;;;;5.40;2.43;;;15.10;97.00;;;;;;10220310;28;20322;-69
2022/04/09 08:21:28;;;;;;;8.50;3.07;;;14.60;96.60;;;;;;10221634;28;20219;-68
2022/04/09 08:26:29;;;;;;;8.67;4.10;;;13.80;96.40;;;;;;10218709;28;20238;-70
2022/04/09 08:31:29;;;;;;;7.53;3.30;;;12.70;99.80;;;;;;10229147;28;20237;-69
2022/04/09 08:36:30;;;;;;;7.97;3.20;;;11.40;99.90;;;;;;10219521;28;20220;-71
2022/04/09 08:41:31;;;;;;;9.97;3.80;;;10.60;99.90;;;;;;10220554;28;20215;-70
2022/04/09 08:46:34;;;;;;;8.53;3.27;;;10.10;99.90;;;;;;10217151;28;20606;-70
2022/04/09 08:51:34;;;;;;;8.03;3.67;;;10.50;99.90;;;;;;10221255;28;20235;-68
2022/04/09 08:56:37;;;;;;;7.40;3.10;;;11.00;99.90;;;;;;10217838;28;20330;-69
2022/04/09 09:01:37;;;;;;;7.63;2.40;;;11.40;99.90;;;;;;10219637;28;20243;-70
2022/04/09 09:06:45;;;;;;;13.07;3.00;;;11.00;99.90;;;;;;10223705;28;20227;-70
2022/04/09 09:11:48;;;;;;;11.07;3.43;;;10.60;99.90;;;;;;10215058;28;20270;-70
2022/04/09 09:16:49;;;;;;;10.97;2.83;;;10.40;99.90;;;;;;10213803;28;20230;-70
2022/04/09 09:21:54;;;;;;;11.20;3.33;;;10.30;99.90;;;;;;10220939;28;20227;-69
2022/04/09 09:26:59;;;;;;;8.27;2.77;;;10.60;99.90;;;;;;10223592;28;20239;-70
2022/04/09 09:32:02;;;;;;;8.73;2.70;;;10.40;99.90;;;;;;10222665;28;20238;-70
2022/04/09 09:37:02;;;;;;;7.10;2.20;;;10.90;99.90;;;;;;10225434;28;20223;-70
2022/04/09 09:42:04;;;;;;;6.20;2.40;;;16.40;99.90;;;;;;10228545;28;20225;-70
2022/04/09 09:47:07;;;;;;;6.13;2.60;;;19.60;75.70;;;;;;10230597;28;20321;-69
2022/04/09 09:52:09;;;;;;;7.77;2.60;;;20.60;58.30;;;;;;10224293;28;20328;-71
2022/04/09 09:57:20;;;;;;;9.57;2.60;;;17.50;61.30;;;;;;10230686;28;20217;-69
2022/04/09 10:02:23;;;;;;;6.60;2.30;;;16.30;68.80;;;;;;10225138;28;20232;-70
2022/04/09 10:07:25;;;;;;;7.20;2.07;;;19.90;55.00;;;;;;10227796;28;20233;-71
2022/04/09 10:12:26;;;;;;;6.70;2.33;;;22.40;48.10;;;;;;10228842;28;20245;-71
2022/04/09 10:17:30;;;;;;;6.10;2.50;;;19.70;49.90;;;;;;10227270;28;20225;-70
2022/04/09 10:22:36;;;;;;;7.07;1.90;;;16.50;56.40;;;;;;10224394;28;20225;-70
2022/04/09 10:27:43;;;;;;;6.40;1.80;;;15.50;57.70;;;;;;10224524;28;20319;-69
2022/04/09 10:32:46;;;;;;;10.30;3.10;;;15.20;56.10;;;;;;10237465;28;20223;-70
2022/04/09 10:38:14;;;;;;;8.60;2.43;;;14.30;66.80;;;;;;10220483;28;20224;-70
2022/04/09 10:43:27;;;;;;;10.37;2.80;;;16.80;64.50;;;;;;10220907;28;20220;-69
2022/04/09 10:48:44;;;;;;;7.50;3.13;;;21.00;54.70;;;;;;10225992;28;20752;-70
2022/04/09 10:53:49;;;;;;;7.93;2.60;;;19.80;53.50;;;;;;10228391;28;20224;-69
2022/04/09 10:59:16;;;;;;;7.00;2.43;;;21.90;50.10;;;;;;10211975;28;20224;-69
2022/04/09 11:04:34;;;;;;;7.87;2.40;;;20.70;48.40;;;;;;10223858;28;20218;-71
2022/04/09 11:09:56;;;;;;;6.90;2.03;;;18.50;53.60;;;;;;10219982;28;20222;-70
2022/04/09 11:15:09;;;;;;;7.17;1.80;;;18.00;53.70;;;;;;10214354;29;20945;-70
2022/04/09 11:20:16;;;;;;;5.83;1.50;;;16.90;50.50;;;;;;10224571;28;20710;-71
2022/04/09 11:25:25;;;;;;;7.03;2.00;;;15.40;54.30;;;;;;10224962;28;20199;-69
2022/04/09 11:30:26;;;;;;;4.93;1.43;;;14.50;56.30;;;;;;10221937;28;20230;-70
2022/04/09 11:35:33;;;;;;;3.73;1.30;;;14.30;58.70;;;;;;10224165;28;20226;-70
2022/04/09 11:40:34;;;;;;;2.87;1.00;;;13.10;62.60;;;;;;10218565;28;20249;-70
2022/04/09 11:45:34;;;;;;;1.27;0.67;;;11.30;69.10;;;;;;10221833;28;20242;-69
2022/04/09 11:50:39;;;;;;;2.40;0.90;;;9.60;90.60;;;;;;10229132;28;20635;-70
2022/04/09 11:55:41;;;;;;;2.30;1.10;;;9.10;96.00;;;;;;10220770;28;20219;-70
2022/04/09 12:00:45;;;;;;;1.43;0.70;;;9.20;98.10;;;;;;10228585;28;20318;-71
2022/04/09 12:05:47;;;;;;;2.17;1.00;;;9.50;99.00;;;;;;10221877;28;20233;-71
2022/04/09 12:10:54;;;;;;;2.93;0.77;;;9.70;99.90;;;;;;10238419;28;20238;-73
2022/04/09 12:16:00;;;;;;;2.37;1.10;;;9.90;99.90;;;;;;10217897;28;20223;-70
2022/04/09 12:21:18;;;;;;;3.40;1.10;;;10.30;99.90;;;;;;10226362;28;20371;-70
2022/04/09 12:26:23;;;;;;;2.23;1.20;;;10.70;97.80;;;;;;10230719;28;20581;-70
2022/04/09 12:31:24;;;;;;;2.30;1.10;;;10.80;96.10;;;;;;10219762;28;20571;-69
2022/04/09 12:36:25;;;;;;;2.37;1.10;;;10.60;97.30;;;;;;10222696;28;20223;-69
2022/04/09 12:41:25;;;;;;;2.17;0.70;;;10.60;98.50;;;;;;10214443;28;20220;-69
2022/04/09 12:46:26;;;;;;;2.63;0.83;;;10.90;98.30;;;;;;10223167;28;20268;-69
2022/04/09 12:51:30;;;;;;;5.60;1.03;;;11.10;98.00;;;;;;10219587;28;20624;-69
2022/04/09 12:56:31;;;;;;;4.00;1.40;;;11.10;96.90;;;;;;10229926;28;20696;-70
2022/04/09 13:01:31;;;;;;;3.97;1.40;;;11.20;97.40;;;;;;10219145;28;20231;-69
2022/04/09 13:06:32;;;;;;;2.97;1.20;;;11.30;94.10;;;;;;10216174;28;20585;-70
2022/04/09 13:11:32;;;;;;;8.33;1.60;;;11.30;94.00;;;;;;10217286;28;21148;-69
2022/04/09 13:16:35;;;;;;;5.00;1.47;;;11.40;92.70;;;;;;10225966;28;20236;-70
2022/04/09 13:21:36;;;;;;;3.70;1.27;;;11.60;89.40;;;;;;10222283;28;20313;-70
2022/04/09 13:26:37;;;;;;;3.63;1.40;;;11.50;92.40;;;;;;10218379;28;20326;-69
2022/04/09 13:31:38;;;;;;;4.50;1.60;;;11.40;92.60;;;;;;10229112;28;20234;-70
2022/04/09 13:36:38;;;;;;;5.30;1.57;;;11.80;93.80;;;;;;10215949;28;20689;-70
2022/04/09 13:41:39;;;;;;;3.13;1.40;;;12.30;91.70;;;;;;10228543;29;20252;-69
2022/04/09 13:46:42;;;;;;;5.57;2.60;;;12.10;92.60;;;;;;10213856;29;20275;-69
2022/04/09 13:51:43;;;;;;;4.57;1.90;;;11.80;93.70;;;;;;10214525;28;20596;-69
2022/04/09 13:56:43;;;;;;;5.43;1.70;;;11.90;94.00;;;;;;10222443;28;20223;-69
2022/04/09 14:01:44;;;;;;;7.53;2.00;;;12.00;92.90;;;;;;10214657;28;20230;-69
2022/04/09 14:06:45;;;;;;;5.83;2.30;;;12.20;91.90;;;;;;10214980;28;20234;-72
2022/04/09 14:11:46;;;;;;;7.93;2.30;;;12.00;92.60;;;;;;10216129;28;20605;-71
2022/04/09 14:16:47;;;;;;;4.40;1.80;;;11.60;93.50;;;;;;10215519;28;20222;-73
2022/04/09 14:21:48;;;;;;;5.77;2.33;;;11.00;99.90;;;;;;10223539;28;20229;-73
2022/04/09 14:26:49;;;;;;;8.27;1.93;;;10.50;99.90;;;;;;10214579;28;20316;-71
2022/04/09 14:31:49;;;;;;;4.53;1.37;;;9.50;99.90;;;;;;10227810;28;20332;-73
2022/04/09 14:36:50;;;;;;;3.97;1.47;;;8.50;99.90;;;;;;10220769;28;20312;-70
2022/04/09 14:41:53;;;;;;;5.80;2.07;;;8.30;99.90;;;;;;10227918;28;20261;-72
2022/04/09 14:46:56;;;;;;;5.63;1.97;;;8.50;99.90;;;;;;10228024;28;20607;-71
2022/04/09 14:51:57;;;;;;;3.83;0.90;;;9.10;99.90;;;;;;10221852;28;20277;-71
2022/04/09 14:56:57;;;;;;;2.03;1.23;;;9.60;99.90;;;;;;10226108;28;20692;-72
2022/04/09 15:01:59;;;;;;;4.00;1.30;;;9.80;99.90;;;;;;10227860;28;20235;-72
2022/04/09 15:07:00;;;;;;;2.53;1.00;;;10.20;99.90;;;;;;10220487;28;20258;-72
2022/04/09 15:12:03;;;;;;;2.20;0.90;;;10.50;99.90;;;;;;10226912;28;20841;-71
2022/04/09 15:17:04;;;;;;;2.27;1.10;;;10.60;99.90;;;;;;10224330;28;20233;-72
2022/04/09 15:22:05;;;;;;;2.73;1.03;;;10.70;99.90;;;;;;10227146;28;20219;-73
2022/04/09 15:27:05;;;;;;;3.57;1.40;;;11.10;99.90;;;;;;10224609;28;20226;-71
2022/04/09 15:32:11;;;;;;;5.03;1.47;;;11.20;99.90;;;;;;10228304;28;20639;-71
2022/04/09 15:37:12;;;;;;;4.83;2.00;;;11.20;99.90;;;;;;10205067;28;20232;-71
2022/04/09 15:42:13;;;;;;;4.30;1.80;;;11.10;99.90;;;;;;10222326;28;20310;-72
2022/04/09 15:47:14;;;;;;;9.70;2.10;;;11.10;99.90;;;;;;10222564;28;20265;-71
2022/04/09 15:52:14;;;;;;;5.23;1.60;;;11.00;99.90;;;;;;10215241;28;20617;-70
2022/04/09 15:57:15;;;;;;;5.37;2.10;;;11.00;99.90;;;;;;10219166;28;20581;-72
2022/04/09 16:02:16;;;;;;;6.30;2.10;;;10.90;99.90;;;;;;10219486;28;20812;-71
2022/04/09 16:07:17;;;;;;;5.73;1.70;;;10.70;99.90;;;;;;10217168;28;20597;-71
2022/04/09 16:12:18;;;;;;;5.97;2.10;;;10.60;99.90;;;;;;10216152;28;20251;-72
2022/04/09 16:17:19;;;;;;;5.23;1.53;;;10.70;99.90;;;;;;10220201;28;20235;-71
2022/04/09 16:22:20;;;;;;;5.87;1.90;;;10.70;99.90;;;;;;10223449;28;20768;-71
2022/04/09 16:27:21;;;;;;;4.67;1.77;;;10.50;99.90;;;;;;10215031;28;20706;-72
2022/04/09 16:32:22;;;;;;;6.33;1.77;;;10.10;99.90;;;;;;10220227;28;20241;-71
2022/04/09 16:37:23;;;;;;;3.97;1.80;;;9.80;99.90;;;;;;10204139;28;20241;-71
2022/04/09 16:42:23;;;;;;;4.93;1.97;;;9.80;99.90;;;;;;10220721;28;20337;-71
2022/04/09 16:47:24;;;;;;;5.77;1.97;;;9.80;99.90;;;;;;10217117;28;20235;-70
2022/04/09 16:52:25;;;;;;;6.80;1.73;;;9.70;99.90;;;;;;10219690;28;20250;-71
2022/04/09 16:57:26;;;;;;;7.40;2.00;;;9.60;99.90;;;;;;10216460;28;20234;-70
2022/04/09 17:02:27;;;;;;;6.73;1.70;;;9.40;99.90;;;;;;10219866;28;20221;-71
2022/04/09 17:07:28;;;;;;;5.63;1.60;;;9.30;99.90;;;;;;10215504;28;20235;-72
2022/04/09 17:12:29;;;;;;;2.80;1.47;;;8.90;99.90;;;;;;10216949;28;20234;-71
2022/04/09 17:17:30;;;;;;;6.07;1.57;;;8.40;99.90;;;;;;10228607;28;20245;-75
2022/04/09 17:22:31;;;;;;;3.50;1.67;;;8.20;99.90;;;;;;10210384;28;20595;-74
2022/04/09 17:27:31;;;;;;;2.60;1.20;;;8.10;99.90;;;;;;10211280;28;20581;-73
2022/04/09 17:32:32;;;;;;;4.07;1.83;;;7.90;99.90;;;;;;10217696;28;20237;-73
2022/04/09 17:37:33;;;;;;;2.43;1.40;;;7.90;99.90;;;;;;10221153;28;20232;-74
2022/04/09 17:42:34;;;;;;;5.00;2.17;;;8.00;99.90;;;;;;10216355;28;20648;-72
2022/04/09 17:47:34;;;;;;;3.87;1.47;;;8.10;99.90;;;;;;10221907;28;20227;-73
2022/04/09 17:52:35;;;;;;;1.97;1.20;;;8.00;99.90;;;;;;10234921;28;20242;-73
2022/04/09 17:57:35;;;;;;;6.33;1.67;;;7.90;99.90;;;;;;10218919;28;20310;-73
2022/04/09 18:02:37;;;;;;;4.37;1.60;;;7.70;99.90;;;;;;10224403;28;20231;-74
2022/04/09 18:07:37;;;;;;;2.53;1.60;;;7.50;99.90;;;;;;10227933;28;20231;-73
2022/04/09 18:12:38;;;;;;;4.73;1.67;;;7.30;99.90;;;;;;10215903;28;20234;-73
2022/04/09 18:17:40;;;;;;;5.30;1.70;;;7.20;99.90;;;;;;10223787;28;20251;-72
2022/04/09 18:22:42;;;;;;;5.27;2.27;;;7.00;99.90;;;;;;10231205;28;20363;-73
2022/04/09 18:27:42;;;;;;;3.63;2.13;;;6.90;99.90;;;;;;10221702;28;20235;-73
2022/04/09 18:32:47;;;;;;;4.33;1.90;;;6.70;99.90;;;;;;10216450;28;20246;-71
2022/04/09 18:37:48;;;;;;;5.03;2.00;;;6.60;99.90;;;;;;10229417;28;20243;-71
2022/04/09 18:42:50;;;;;;;4.17;1.90;;;6.50;99.90;;;;;;10212389;28;20337;-71
2022/04/09 18:47:51;;;;;;;3.07;2.20;;;6.40;99.90;;;;;;10207594;28;20707;-72
2022/04/09 18:52:51;;;;;;;7.10;2.73;;;6.30;99.90;;;;;;10226567;28;20228;-71
2022/04/09 18:57:52;;;;;;;7.20;2.90;;;6.20;99.90;;;;;;10222421;28;20226;-70
2022/04/09 19:02:53;;;;;;;6.83;3.50;;;6.10;99.90;;;;;;10220359;28;20212;-72
2022/04/09 19:07:53;;;;;;;5.20;2.80;;;6.00;99.90;;;;;;10222327;28;20217;-72
2022/04/09 19:12:54;;;;;;;4.03;2.40;;;5.90;99.90;;;;;;10221589;28;20639;-72
2022/04/09 19:17:55;;;;;;;5.67;2.27;;;5.80;99.90;;;;;;10228637;28;20675;-73
2022/04/09 19:22:56;;;;;;;4.90;2.33;;;5.70;99.90;;;;;;10218600;28;20354;-72
2022/04/09 19:27:56;;;;;;;7.30;2.80;;;5.70;99.90;;;;;;10224513;28;20675;-72
2022/04/09 19:32:57;;;;;;;9.07;3.40;;;5.60;99.90;;;;;;10217126;28;20216;-74
2022/04/09 19:37:58;;;;;;;7.10;3.40;;;5.60;99.90;;;;;;10227431;28;20247;-72
2022/04/09 19:42:59;;;;;;;8.07;3.70;;;5.50;99.90;;;;;;10215584;28;20563;-73
2022/04/09 19:48:03;;;;;;;4.97;2.93;;;5.50;99.90;;;;;;10213502;28;20224;-74
2022/04/09 19:53:04;;;;;;;4.20;2.10;;;5.50;99.90;;;;;;10209036;28;20220;-73
2022/04/09 19:58:05;;;;;;;5.93;2.63;;;5.60;99.90;;;;;;10212336;29;20233;-72
2022/04/09 20:03:06;;;;;;;6.93;2.60;;;5.70;99.90;;;;;;10219328;28;20694;-74
2022/04/09 20:08:08;;;;;;;4.23;2.27;;;5.90;99.90;;;;;;10218156;28;20590;-73
2022/04/09 20:13:09;;;;;;;5.63;3.07;;;5.90;99.90;;;;;;10248531;28;20231;-73
2022/04/09 20:18:12;;;;;;;5.23;3.00;;;5.80;99.90;;;;;;10222497;28;20308;-73
2022/04/09 20:23:13;;;;;;;5.23;3.37;;;5.70;99.90;;;;;;10220502;28;20789;-74
2022/04/09 20:28:17;;;;;;;9.90;4.23;;;5.60;99.90;;;;;;10225774;28;20251;-73
2022/04/09 20:33:18;;;;;;;7.93;4.17;;;5.50;99.90;;;;;;10221812;28;20391;-72
2022/04/09 20:38:19;;;;;;;7.53;4.30;;;5.40;99.90;;;;;;10211306;28;20298;-72
2022/04/09 20:43:19;;;;;;;6.07;3.53;;;5.30;99.90;;;;;;10222328;28;20634;-74
2022/04/09 20:48:20;;;;;;;5.70;3.13;;;5.20;99.90;;;;;;10220243;28;20236;-73
2022/04/09 20:53:21;;;;;;;4.33;2.97;;;5.20;99.90;;;;;;10233309;28;20251;-73
2022/04/09 20:58:22;;;;;;;5.77;2.57;;;5.10;99.90;;;;;;10228709;28;20234;-74
2022/04/09 21:03:25;;;;;;;7.47;3.50;;;5.10;99.90;;;;;;10220022;28;20749;-73
2022/04/09 21:08:27;;;;;;;7.27;3.70;;;5.10;99.90;;;;;;10209781;28;20255;-72
2022/04/09 21:13:28;;;;;;;7.47;3.50;;;5.10;99.90;;;;;;10222763;28;20228;-72
2022/04/09 21:18:29;;;;;;;6.80;3.10;;;5.00;99.90;;;;;;10217200;28;20301;-72
2022/04/09 21:23:32;;;;;;;6.50;3.50;;;4.90;99.90;;;;;;10223735;28;20259;-74
2022/04/09 21:28:33;;;;;;;9.47;3.27;;;4.90;99.90;;;;;;10223046;28;20219;-74
2022/04/09 21:33:34;;;;;;;7.43;4.03;;;4.80;99.90;;;;;;10222670;28;20586;-72
2022/04/09 21:38:34;;;;;;;5.67;3.63;;;4.70;99.90;;;;;;10208507;28;20220;-74
2022/04/09 21:43:35;;;;;;;9.20;5.27;;;4.70;99.90;;;;;;10222855;28;20311;-73
2022/04/09 21:48:36;;;;;;;7.13;3.87;;;4.70;99.90;;;;;;10218766;28;20786;-71
2022/04/09 21:53:37;;;;;;;5.17;3.17;;;4.90;99.90;;;;;;10203679;28;20589;-72
2022/04/09 21:58:37;;;;;;;3.97;2.90;;;5.10;99.90;;;;;;10204634;28;20228;-74
2022/04/09 22:03:43;;;;;;;6.53;3.73;;;5.20;99.90;;;;;;10218338;28;20221;-75
2022/04/09 22:08:43;;;;;;;8.13;3.97;;;5.30;99.90;;;;;;10225097;28;20605;-76
2022/04/09 22:13:44;;;;;;;5.43;3.20;;;5.40;99.90;;;;;;10223399;28;20297;-74
2022/04/09 22:18:45;;;;;;;5.40;3.50;;;5.20;99.90;;;;;;10217937;28;20228;-73
2022/04/09 22:23:48;;;;;;;8.77;3.83;;;5.10;99.90;;;;;;10219010;28;20220;-72
2022/04/09 22:28:49;;;;;;;8.07;3.60;;;5.00;99.90;;;;;;10217578;28;20283;-73
2022/04/09 22:33:50;;;;;;;6.60;4.47;;;4.90;99.90;;;;;;10205544;28;20247;-73
2022/04/09 22:38:51;;;;;;;7.43;3.77;;;4.90;99.90;;;;;;10222784;28;20665;-73
2022/04/09 22:43:52;;;;;;;8.03;4.33;;;4.80;99.90;;;;;;10222182;28;20268;-73
2022/04/09 22:48:55;;;;;;;6.90;4.07;;;4.70;99.90;;;;;;10230458;28;20223;-74
2022/04/09 22:53:56;;;;;;;5.93;3.93;;;4.50;99.90;;;;;;10222246;28;20399;-74
2022/04/09 22:58:57;;;;;;;6.23;3.73;;;4.40;99.90;;;;;;10223448;28;20311;-73
2022/04/09 23:03:57;;;;;;;8.27;4.53;;;4.30;99.90;;;;;;10222192;28;20212;-74
2022/04/09 23:08:58;;;;;;;8.47;4.50;;;4.30;99.90;;;;;;10229338;28;20227;-74
2022/04/09 23:13:59;;;;;;;7.10;4.07;;;4.20;99.90;;;;;;10221112;28;20220;-74
2022/04/09 23:18:59;;;;;;;5.40;4.07;;;4.20;99.90;;;;;;10221856;28;20235;-74
2022/04/09 23:24:00;;;;;;;6.17;4.27;;;4.20;99.90;;;;;;10222905;28;20226;-73
2022/04/09 23:29:00;;;;;;;7.47;4.10;;;4.10;99.90;;;;;;10219518;28;20248;-73
2022/04/09 23:34:01;;;;;;;6.50;3.67;;;4.00;99.90;;;;;;10228699;28;20219;-74
2022/04/09 23:39:04;;;;;;;6.27;4.50;;;4.00;99.90;;;;;;10229008;28;20539;-73
2022/04/09 23:44:05;;;;;;;8.30;4.70;;;3.90;99.90;;;;;;10229544;28;20232;-74
2022/04/09 23:49:09;;;;;;;5.70;3.63;;;3.80;99.90;;;;;;10214674;28;20247;-72
2022/04/09 23:54:09;;;;;;;8.63;4.60;;;3.70;99.90;;;;;;10225978;28;20279;-72
2022/04/09 23:59:10;;;;;;;6.87;4.40;;;3.70;99.90;;;;;;10231559;28;20421;-74
